This is the latest recevied weather packets stored in our database for station/object W4OA. If no packets are shown the sender has not sent any weather packets the latest 1 day(s).
| Time | Temp. | Humidity | Pressure | Rain* | Wind** | Luminosity | Snow |
|---|---|---|---|---|---|---|---|
| 1777997399 | 21.67° C | 53% | 1010 hPa | 0 mm | 0 m/s | 0 W/m² | - |
| 1777997099 | 21.67° C | 52% | 1010 hPa | 0 mm | 1.79 m/s, 68° | 0 W/m² | - |
| 1777996799 | 21.67° C | 53% | 1010 hPa | 0 mm | 1.79 m/s, 45° | 0 W/m² | - |
| 1777996499 | 21.67° C | 52% | 1010 hPa | 0 mm | 0.89 m/s, 90° | 0 W/m² | - |
| 1777996199 | 21.11° C | 53% | 1010 hPa | 0 mm | 1.34 m/s, 113° | 0 W/m² | - |
| 1777995899 | 21.11° C | 52% | 1010 hPa | 0 mm | 1.79 m/s, 23° | 0 W/m² | - |
| 1777995599 | 21.67° C | 54% | 1010 hPa | 0 mm | 0.89 m/s, 338° | 0 W/m² | - |
| 1777995299 | 21.11° C | 55% | 1010 hPa | 0 mm | 0.89 m/s, 248° | 0 W/m² | - |
| 1777994998 | 20.56° C | 58% | 1010 hPa | 0 mm | 0 m/s | 0 W/m² | - |
| 1777994698 | 20.56° C | 59% | 1010 hPa | 0 mm | 1.34 m/s, 68° | 0 W/m² | - |
| 1777994408 | 20° C | 60% | 1010 hPa | 0 mm | 0 m/s | 0 W/m² | - |
| 1777994098 | 20° C | 61% | 1010 hPa | 0 mm | 0.45 m/s, 0° | 0 W/m² | - |
| 1777993801 | 20° C | 62% | 1010 hPa | 0 mm | 0 m/s | 0 W/m² | - |
| 1777993503 | 19.44° C | 63% | 1010 hPa | 0 mm | 0.45 m/s, 315° | 0 W/m² | - |
| 1777993198 | 18.89° C | 63% | 1010 hPa | 0 mm | 0.89 m/s, 68° | 0 W/m² | - |
| 1777992899 | 19.44° C | 64% | 1010 hPa | 0 mm | 0 m/s | 0 W/m² | - |
| 1777992600 | 18.89° C | 66% | 1010 hPa | 0 mm | 0.89 m/s, 45° | 0 W/m² | - |
| 1777992299 | 18.89° C | 65% | 1010 hPa | 0 mm | 1.34 m/s, 68° | 0 W/m² | - |
| 1777992001 | 18.89° C | 66% | 1010 hPa | 0 mm | 0.45 m/s, 338° | 0 W/m² | - |
| 1777991701 | 18.33° C | 66% | 1010 hPa | 0 mm | 0.89 m/s, 135° | 0 W/m² | - |
| 1777991399 | 18.33° C | 67% | 1010 hPa | 0 mm | 0 m/s | 0 W/m² | - |
| 1777991098 | 18.33° C | 67% | 1010 hPa | 0 mm | 0 m/s | 0 W/m² | - |
| 1777990798 | 17.78° C | 67% | 1010 hPa | 0 mm | 1.34 m/s, 23° | 0 W/m² | - |
| 1777990498 | 17.78° C | 68% | 1010 hPa | 0 mm | 0.89 m/s, 90° | 0 W/m² | - |
| 1777990200 | 17.78° C | 69% | 1010 hPa | 0 mm | 0 m/s | 0 W/m² | - |
* Rain latest hour (hover to see other rain measurements)
** Current wind speed in m/s (hover to see current wind gust speed)